sensor_id;sensor_type;location;lat;lon;timestamp;P1;durP1;ratioP1;P2;durP2;ratioP2
7515;SDS011;3799;47.184;8.538;2023-06-26T00:00:10;9.07;;;4.57;;
7515;SDS011;3799;47.184;8.538;2023-06-26T00:02:39;6.05;;;4.07;;
7515;SDS011;3799;47.184;8.538;2023-06-26T00:05:08;8.05;;;4.10;;
7515;SDS011;3799;47.184;8.538;2023-06-26T00:07:35;7.18;;;4.07;;
7515;SDS011;3799;47.184;8.538;2023-06-26T00:10:03;7.68;;;4.15;;
7515;SDS011;3799;47.184;8.538;2023-06-26T00:12:31;8.02;;;3.85;;
7515;SDS011;3799;47.184;8.538;2023-06-26T00:14:58;6.25;;;4.32;;
7515;SDS011;3799;47.184;8.538;2023-06-26T00:17:25;5.53;;;4.00;;
7515;SDS011;3799;47.184;8.538;2023-06-26T00:19:53;6.25;;;3.95;;
7515;SDS011;3799;47.184;8.538;2023-06-26T00:22:20;7.03;;;4.00;;
7515;SDS011;3799;47.184;8.538;2023-06-26T00:24:48;5.85;;;4.07;;
7515;SDS011;3799;47.184;8.538;2023-06-26T00:27:15;5.30;;;3.80;;
7515;SDS011;3799;47.184;8.538;2023-06-26T00:29:42;5.43;;;3.40;;
7515;SDS011;3799;47.184;8.538;2023-06-26T00:32:09;6.43;;;3.80;;
7515;SDS011;3799;47.184;8.538;2023-06-26T00:34:37;7.03;;;4.00;;
7515;SDS011;3799;47.184;8.538;2023-06-26T00:37:04;6.47;;;4.40;;
7515;SDS011;3799;47.184;8.538;2023-06-26T00:39:31;6.93;;;4.03;;
7515;SDS011;3799;47.184;8.538;2023-06-26T00:41:58;6.80;;;3.80;;
7515;SDS011;3799;47.184;8.538;2023-06-26T00:44:25;6.82;;;4.03;;
7515;SDS011;3799;47.184;8.538;2023-06-26T00:46:52;9.25;;;4.30;;
7515;SDS011;3799;47.184;8.538;2023-06-26T00:49:20;7.18;;;4.15;;
7515;SDS011;3799;47.184;8.538;2023-06-26T00:51:48;7.07;;;4.00;;
7515;SDS011;3799;47.184;8.538;2023-06-26T00:54:16;5.82;;;3.92;;
7515;SDS011;3799;47.184;8.538;2023-06-26T00:56:46;7.00;;;4.32;;
7515;SDS011;3799;47.184;8.538;2023-06-26T00:59:14;8.50;;;4.40;;
7515;SDS011;3799;47.184;8.538;2023-06-26T01:01:41;5.43;;;3.92;;
7515;SDS011;3799;47.184;8.538;2023-06-26T01:04:09;7.03;;;3.92;;
7515;SDS011;3799;47.184;8.538;2023-06-26T01:06:45;7.57;;;4.28;;
7515;SDS011;3799;47.184;8.538;2023-06-26T01:09:17;5.88;;;3.80;;
7515;SDS011;3799;47.184;8.538;2023-06-26T01:11:45;6.28;;;3.38;;
7515;SDS011;3799;47.184;8.538;2023-06-26T01:14:13;6.18;;;3.78;;
7515;SDS011;3799;47.184;8.538;2023-06-26T01:16:41;7.05;;;3.95;;
7515;SDS011;3799;47.184;8.538;2023-06-26T01:19:18;6.20;;;4.00;;
7515;SDS011;3799;47.184;8.538;2023-06-26T01:25:17;6.82;;;4.40;;
7515;SDS011;3799;47.184;8.538;2023-06-26T01:27:56;6.93;;;4.18;;
7515;SDS011;3799;47.184;8.538;2023-06-26T01:30:23;6.50;;;3.90;;
7515;SDS011;3799;47.184;8.538;2023-06-26T01:32:52;6.28;;;3.75;;
7515;SDS011;3799;47.184;8.538;2023-06-26T01:35:20;6.35;;;3.90;;
7515;SDS011;3799;47.184;8.538;2023-06-26T01:37:47;7.22;;;3.97;;
7515;SDS011;3799;47.184;8.538;2023-06-26T01:40:14;5.20;;;3.50;;
7515;SDS011;3799;47.184;8.538;2023-06-26T01:42:41;8.27;;;4.65;;
7515;SDS011;3799;47.184;8.538;2023-06-26T01:45:21;6.50;;;3.42;;
7515;SDS011;3799;47.184;8.538;2023-06-26T01:47:53;10.73;;;4.30;;
7515;SDS011;3799;47.184;8.538;2023-06-26T01:50:24;5.43;;;3.50;;
7515;SDS011;3799;47.184;8.538;2023-06-26T01:53:01;7.22;;;4.28;;
7515;SDS011;3799;47.184;8.538;2023-06-26T01:55:40;5.90;;;4.20;;
7515;SDS011;3799;47.184;8.538;2023-06-26T01:58:18;7.55;;;4.30;;
7515;SDS011;3799;47.184;8.538;2023-06-26T02:00:49;7.82;;;4.20;;
7515;SDS011;3799;47.184;8.538;2023-06-26T02:03:16;5.97;;;4.38;;
7515;SDS011;3799;47.184;8.538;2023-06-26T02:05:44;9.55;;;4.75;;
7515;SDS011;3799;47.184;8.538;2023-06-26T02:08:13;7.80;;;4.32;;
7515;SDS011;3799;47.184;8.538;2023-06-26T02:13:09;5.55;;;3.78;;
7515;SDS011;3799;47.184;8.538;2023-06-26T02:15:36;6.43;;;3.72;;
7515;SDS011;3799;47.184;8.538;2023-06-26T02:18:03;5.72;;;4.00;;
7515;SDS011;3799;47.184;8.538;2023-06-26T02:20:30;6.95;;;4.63;;
7515;SDS011;3799;47.184;8.538;2023-06-26T02:22:59;5.75;;;4.22;;
7515;SDS011;3799;47.184;8.538;2023-06-26T02:25:26;6.63;;;4.60;;
7515;SDS011;3799;47.184;8.538;2023-06-26T02:27:54;6.75;;;4.45;;
7515;SDS011;3799;47.184;8.538;2023-06-26T02:30:21;6.18;;;4.20;;
7515;SDS011;3799;47.184;8.538;2023-06-26T02:32:49;7.88;;;4.57;;
7515;SDS011;3799;47.184;8.538;2023-06-26T02:35:16;6.05;;;3.67;;
7515;SDS011;3799;47.184;8.538;2023-06-26T02:37:43;7.00;;;4.40;;
7515;SDS011;3799;47.184;8.538;2023-06-26T02:40:11;7.32;;;4.40;;
7515;SDS011;3799;47.184;8.538;2023-06-26T02:42:41;6.60;;;3.97;;
7515;SDS011;3799;47.184;8.538;2023-06-26T02:45:08;6.03;;;3.97;;
7515;SDS011;3799;47.184;8.538;2023-06-26T02:47:36;5.50;;;4.15;;
7515;SDS011;3799;47.184;8.538;2023-06-26T02:50:06;7.32;;;4.60;;
7515;SDS011;3799;47.184;8.538;2023-06-26T02:52:34;6.00;;;4.00;;
7515;SDS011;3799;47.184;8.538;2023-06-26T02:55:01;5.90;;;4.18;;
7515;SDS011;3799;47.184;8.538;2023-06-26T02:57:28;8.10;;;4.90;;
7515;SDS011;3799;47.184;8.538;2023-06-26T02:59:56;6.00;;;4.25;;
7515;SDS011;3799;47.184;8.538;2023-06-26T03:02:23;6.78;;;4.30;;
7515;SDS011;3799;47.184;8.538;2023-06-26T03:04:53;7.78;;;4.30;;
7515;SDS011;3799;47.184;8.538;2023-06-26T03:07:20;6.30;;;4.28;;
7515;SDS011;3799;47.184;8.538;2023-06-26T03:09:47;8.73;;;4.63;;
7515;SDS011;3799;47.184;8.538;2023-06-26T03:12:15;7.53;;;4.57;;
7515;SDS011;3799;47.184;8.538;2023-06-26T03:14:45;7.18;;;4.32;;
7515;SDS011;3799;47.184;8.538;2023-06-26T03:17:12;9.00;;;4.32;;
7515;SDS011;3799;47.184;8.538;2023-06-26T03:19:39;6.45;;;4.78;;
7515;SDS011;3799;47.184;8.538;2023-06-26T03:22:07;5.80;;;3.83;;
7515;SDS011;3799;47.184;8.538;2023-06-26T03:24:34;8.38;;;4.63;;
7515;SDS011;3799;47.184;8.538;2023-06-26T03:27:01;6.55;;;4.32;;
7515;SDS011;3799;47.184;8.538;2023-06-26T03:29:28;6.40;;;3.78;;
7515;SDS011;3799;47.184;8.538;2023-06-26T03:31:56;8.55;;;4.95;;
7515;SDS011;3799;47.184;8.538;2023-06-26T03:34:23;8.00;;;4.53;;
7515;SDS011;3799;47.184;8.538;2023-06-26T03:36:50;6.97;;;4.88;;
7515;SDS011;3799;47.184;8.538;2023-06-26T03:39:17;6.93;;;4.63;;
7515;SDS011;3799;47.184;8.538;2023-06-26T03:41:45;7.07;;;4.47;;
7515;SDS011;3799;47.184;8.538;2023-06-26T03:44:12;6.03;;;4.47;;
7515;SDS011;3799;47.184;8.538;2023-06-26T03:46:39;6.05;;;4.38;;
7515;SDS011;3799;47.184;8.538;2023-06-26T03:49:06;7.78;;;4.65;;
7515;SDS011;3799;47.184;8.538;2023-06-26T03:51:36;5.88;;;4.35;;
7515;SDS011;3799;47.184;8.538;2023-06-26T03:54:03;7.13;;;5.03;;
7515;SDS011;3799;47.184;8.538;2023-06-26T03:56:31;5.80;;;4.35;;
7515;SDS011;3799;47.184;8.538;2023-06-26T03:58:58;8.68;;;5.38;;
7515;SDS011;3799;47.184;8.538;2023-06-26T04:01:25;6.18;;;4.30;;
7515;SDS011;3799;47.184;8.538;2023-06-26T04:03:52;6.32;;;4.68;;
7515;SDS011;3799;47.184;8.538;2023-06-26T04:06:20;8.60;;;4.45;;
7515;SDS011;3799;47.184;8.538;2023-06-26T04:08:47;6.45;;;4.70;;
7515;SDS011;3799;47.184;8.538;2023-06-26T04:11:14;9.15;;;4.82;;
7515;SDS011;3799;47.184;8.538;2023-06-26T04:13:41;6.43;;;4.63;;
7515;SDS011;3799;47.184;8.538;2023-06-26T04:16:09;6.40;;;4.43;;
7515;SDS011;3799;47.184;8.538;2023-06-26T04:18:38;8.10;;;5.00;;
7515;SDS011;3799;47.184;8.538;2023-06-26T04:21:09;6.55;;;4.68;;
7515;SDS011;3799;47.184;8.538;2023-06-26T04:23:40;6.20;;;4.95;;
7515;SDS011;3799;47.184;8.538;2023-06-26T04:26:08;7.07;;;4.22;;
7515;SDS011;3799;47.184;8.538;2023-06-26T04:28:35;6.28;;;4.78;;
7515;SDS011;3799;47.184;8.538;2023-06-26T04:31:03;7.25;;;4.95;;
7515;SDS011;3799;47.184;8.538;2023-06-26T04:33:31;7.97;;;4.70;;
7515;SDS011;3799;47.184;8.538;2023-06-26T04:35:58;5.97;;;4.10;;
7515;SDS011;3799;47.184;8.538;2023-06-26T04:38:26;7.05;;;5.25;;
7515;SDS011;3799;47.184;8.538;2023-06-26T04:40:53;5.70;;;4.03;;
7515;SDS011;3799;47.184;8.538;2023-06-26T04:43:20;7.85;;;4.57;;
7515;SDS011;3799;47.184;8.538;2023-06-26T04:45:47;8.82;;;5.05;;
7515;SDS011;3799;47.184;8.538;2023-06-26T04:48:15;9.13;;;5.10;;
7515;SDS011;3799;47.184;8.538;2023-06-26T04:50:42;7.60;;;4.70;;
7515;SDS011;3799;47.184;8.538;2023-06-26T04:53:09;7.93;;;5.05;;
7515;SDS011;3799;47.184;8.538;2023-06-26T04:55:36;7.18;;;4.90;;
7515;SDS011;3799;47.184;8.538;2023-06-26T04:58:05;8.57;;;5.10;;
7515;SDS011;3799;47.184;8.538;2023-06-26T05:00:32;6.28;;;4.50;;
7515;SDS011;3799;47.184;8.538;2023-06-26T05:03:03;7.20;;;4.53;;
7515;SDS011;3799;47.184;8.538;2023-06-26T05:05:30;6.50;;;4.47;;
7515;SDS011;3799;47.184;8.538;2023-06-26T05:07:57;7.30;;;4.30;;
7515;SDS011;3799;47.184;8.538;2023-06-26T05:10:24;6.10;;;4.32;;
7515;SDS011;3799;47.184;8.538;2023-06-26T05:12:51;7.10;;;3.83;;
7515;SDS011;3799;47.184;8.538;2023-06-26T05:15:18;6.57;;;4.13;;
7515;SDS011;3799;47.184;8.538;2023-06-26T05:17:45;5.72;;;3.90;;
7515;SDS011;3799;47.184;8.538;2023-06-26T05:20:13;6.03;;;3.92;;
7515;SDS011;3799;47.184;8.538;2023-06-26T05:22:40;5.30;;;3.60;;
7515;SDS011;3799;47.184;8.538;2023-06-26T05:25:08;6.15;;;3.97;;
7515;SDS011;3799;47.184;8.538;2023-06-26T05:27:36;6.07;;;4.15;;
7515;SDS011;3799;47.184;8.538;2023-06-26T05:30:05;9.18;;;4.80;;
7515;SDS011;3799;47.184;8.538;2023-06-26T05:32:35;7.32;;;4.43;;
7515;SDS011;3799;47.184;8.538;2023-06-26T05:35:17;8.57;;;5.07;;
7515;SDS011;3799;47.184;8.538;2023-06-26T05:37:50;7.05;;;5.00;;
7515;SDS011;3799;47.184;8.538;2023-06-26T05:40:18;7.20;;;4.45;;
7515;SDS011;3799;47.184;8.538;2023-06-26T05:42:46;9.77;;;5.35;;
7515;SDS011;3799;47.184;8.538;2023-06-26T05:45:13;6.80;;;4.88;;
7515;SDS011;3799;47.184;8.538;2023-06-26T05:47:41;7.43;;;4.75;;
7515;SDS011;3799;47.184;8.538;2023-06-26T05:50:09;8.23;;;5.05;;
7515;SDS011;3799;47.184;8.538;2023-06-26T05:52:37;10.57;;;4.72;;
7515;SDS011;3799;47.184;8.538;2023-06-26T05:55:05;8.23;;;4.60;;
7515;SDS011;3799;47.184;8.538;2023-06-26T05:57:33;6.30;;;4.40;;
7515;SDS011;3799;47.184;8.538;2023-06-26T06:00:01;6.88;;;4.63;;
7515;SDS011;3799;47.184;8.538;2023-06-26T06:02:32;8.52;;;5.10;;
7515;SDS011;3799;47.184;8.538;2023-06-26T06:04:59;7.50;;;4.68;;
7515;SDS011;3799;47.184;8.538;2023-06-26T06:07:26;8.32;;;4.40;;
7515;SDS011;3799;47.184;8.538;2023-06-26T06:09:54;6.18;;;4.30;;
7515;SDS011;3799;47.184;8.538;2023-06-26T06:12:21;7.03;;;4.82;;
7515;SDS011;3799;47.184;8.538;2023-06-26T06:14:48;6.20;;;4.30;;
7515;SDS011;3799;47.184;8.538;2023-06-26T06:17:15;8.40;;;5.30;;
7515;SDS011;3799;47.184;8.538;2023-06-26T06:19:42;6.88;;;4.88;;
7515;SDS011;3799;47.184;8.538;2023-06-26T06:22:09;10.50;;;4.65;;
7515;SDS011;3799;47.184;8.538;2023-06-26T06:24:37;6.32;;;4.35;;
7515;SDS011;3799;47.184;8.538;2023-06-26T06:27:04;6.28;;;4.70;;
7515;SDS011;3799;47.184;8.538;2023-06-26T06:29:31;6.30;;;4.63;;
7515;SDS011;3799;47.184;8.538;2023-06-26T06:31:58;11.25;;;6.13;;
7515;SDS011;3799;47.184;8.538;2023-06-26T06:34:26;6.93;;;4.35;;
7515;SDS011;3799;47.184;8.538;2023-06-26T06:36:53;6.35;;;4.50;;
7515;SDS011;3799;47.184;8.538;2023-06-26T06:39:20;7.57;;;5.43;;
7515;SDS011;3799;47.184;8.538;2023-06-26T06:41:47;7.35;;;4.78;;
7515;SDS011;3799;47.184;8.538;2023-06-26T06:44:14;9.10;;;5.63;;
7515;SDS011;3799;47.184;8.538;2023-06-26T06:46:42;8.40;;;5.80;;
7515;SDS011;3799;47.184;8.538;2023-06-26T06:49:09;9.05;;;4.65;;
7515;SDS011;3799;47.184;8.538;2023-06-26T06:51:36;7.55;;;4.95;;
7515;SDS011;3799;47.184;8.538;2023-06-26T06:54:03;9.55;;;5.45;;
7515;SDS011;3799;47.184;8.538;2023-06-26T06:56:30;6.90;;;4.82;;
7515;SDS011;3799;47.184;8.538;2023-06-26T06:58:57;12.80;;;5.05;;
7515;SDS011;3799;47.184;8.538;2023-06-26T07:01:24;8.57;;;4.93;;
7515;SDS011;3799;47.184;8.538;2023-06-26T07:03:52;8.50;;;4.78;;
7515;SDS011;3799;47.184;8.538;2023-06-26T07:06:19;7.05;;;5.07;;
7515;SDS011;3799;47.184;8.538;2023-06-26T07:08:46;7.57;;;4.53;;
7515;SDS011;3799;47.184;8.538;2023-06-26T07:11:13;9.07;;;5.07;;
7515;SDS011;3799;47.184;8.538;2023-06-26T07:13:40;8.55;;;5.40;;
7515;SDS011;3799;47.184;8.538;2023-06-26T07:16:08;6.45;;;4.65;;
7515;SDS011;3799;47.184;8.538;2023-06-26T07:18:38;8.13;;;5.40;;
7515;SDS011;3799;47.184;8.538;2023-06-26T07:21:05;8.52;;;5.50;;
7515;SDS011;3799;47.184;8.538;2023-06-26T07:23:32;8.25;;;5.35;;
7515;SDS011;3799;47.184;8.538;2023-06-26T07:25:59;9.18;;;5.30;;
7515;SDS011;3799;47.184;8.538;2023-06-26T07:28:27;7.15;;;4.68;;
7515;SDS011;3799;47.184;8.538;2023-06-26T07:30:57;8.55;;;4.68;;
7515;SDS011;3799;47.184;8.538;2023-06-26T07:33:24;7.15;;;4.80;;
7515;SDS011;3799;47.184;8.538;2023-06-26T07:35:52;6.53;;;4.60;;
7515;SDS011;3799;47.184;8.538;2023-06-26T07:38:20;7.15;;;4.50;;
7515;SDS011;3799;47.184;8.538;2023-06-26T07:40:47;7.65;;;5.38;;
7515;SDS011;3799;47.184;8.538;2023-06-26T07:43:15;7.55;;;5.63;;
7515;SDS011;3799;47.184;8.538;2023-06-26T07:45:42;7.07;;;5.38;;
7515;SDS011;3799;47.184;8.538;2023-06-26T07:48:09;8.05;;;5.88;;
7515;SDS011;3799;47.184;8.538;2023-06-26T07:50:37;10.18;;;6.25;;
7515;SDS011;3799;47.184;8.538;2023-06-26T07:53:05;10.32;;;6.13;;
7515;SDS011;3799;47.184;8.538;2023-06-26T07:55:32;7.97;;;5.38;;
7515;SDS011;3799;47.184;8.538;2023-06-26T07:58:00;9.23;;;5.97;;
7515;SDS011;3799;47.184;8.538;2023-06-26T08:00:28;8.00;;;5.22;;
7515;SDS011;3799;47.184;8.538;2023-06-26T08:02:55;8.68;;;5.53;;
7515;SDS011;3799;47.184;8.538;2023-06-26T08:05:22;6.95;;;5.50;;
7515;SDS011;3799;47.184;8.538;2023-06-26T08:07:50;10.75;;;5.35;;
7515;SDS011;3799;47.184;8.538;2023-06-26T08:10:17;7.00;;;4.88;;
7515;SDS011;3799;47.184;8.538;2023-06-26T08:12:44;7.78;;;5.40;;
7515;SDS011;3799;47.184;8.538;2023-06-26T08:15:13;6.35;;;4.88;;
7515;SDS011;3799;47.184;8.538;2023-06-26T08:17:40;6.60;;;5.30;;
7515;SDS011;3799;47.184;8.538;2023-06-26T08:20:08;8.98;;;5.28;;
7515;SDS011;3799;47.184;8.538;2023-06-26T08:22:36;8.38;;;5.30;;
7515;SDS011;3799;47.184;8.538;2023-06-26T08:25:03;7.05;;;5.32;;
7515;SDS011;3799;47.184;8.538;2023-06-26T08:27:32;7.43;;;5.20;;
7515;SDS011;3799;47.184;8.538;2023-06-26T08:29:59;7.28;;;5.13;;
7515;SDS011;3799;47.184;8.538;2023-06-26T08:32:26;7.70;;;5.53;;
7515;SDS011;3799;47.184;8.538;2023-06-26T08:34:56;8.27;;;5.65;;
7515;SDS011;3799;47.184;8.538;2023-06-26T08:37:24;8.30;;;5.40;;
7515;SDS011;3799;47.184;8.538;2023-06-26T08:39:51;7.18;;;4.95;;
7515;SDS011;3799;47.184;8.538;2023-06-26T08:42:18;8.48;;;5.07;;
7515;SDS011;3799;47.184;8.538;2023-06-26T08:44:46;7.63;;;5.00;;
7515;SDS011;3799;47.184;8.538;2023-06-26T08:47:27;9.20;;;5.22;;
7515;SDS011;3799;47.184;8.538;2023-06-26T08:50:00;6.75;;;5.20;;
7515;SDS011;3799;47.184;8.538;2023-06-26T08:55:46;7.72;;;4.95;;
7515;SDS011;3799;47.184;8.538;2023-06-26T08:58:15;8.13;;;5.05;;
7515;SDS011;3799;47.184;8.538;2023-06-26T09:00:43;8.70;;;4.82;;
7515;SDS011;3799;47.184;8.538;2023-06-26T09:03:10;6.38;;;4.68;;
7515;SDS011;3799;47.184;8.538;2023-06-26T09:05:40;6.78;;;4.63;;
7515;SDS011;3799;47.184;8.538;2023-06-26T09:08:10;8.18;;;4.88;;
7515;SDS011;3799;47.184;8.538;2023-06-26T09:10:40;7.72;;;5.07;;
7515;SDS011;3799;47.184;8.538;2023-06-26T09:13:09;8.95;;;5.70;;
7515;SDS011;3799;47.184;8.538;2023-06-26T09:15:54;7.78;;;4.72;;
7515;SDS011;3799;47.184;8.538;2023-06-26T09:18:22;8.18;;;5.22;;
7515;SDS011;3799;47.184;8.538;2023-06-26T09:20:50;7.85;;;4.90;;
7515;SDS011;3799;47.184;8.538;2023-06-26T09:23:21;6.57;;;4.85;;
7515;SDS011;3799;47.184;8.538;2023-06-26T09:25:48;7.90;;;4.80;;
7515;SDS011;3799;47.184;8.538;2023-06-26T09:28:27;9.70;;;4.75;;
7515;SDS011;3799;47.184;8.538;2023-06-26T09:31:00;7.55;;;5.28;;
7515;SDS011;3799;47.184;8.538;2023-06-26T09:33:37;7.50;;;4.57;;
7515;SDS011;3799;47.184;8.538;2023-06-26T09:36:06;8.00;;;5.10;;
7515;SDS011;3799;47.184;8.538;2023-06-26T09:38:39;8.68;;;5.15;;
7515;SDS011;3799;47.184;8.538;2023-06-26T09:41:06;6.68;;;4.93;;
7515;SDS011;3799;47.184;8.538;2023-06-26T09:43:33;7.93;;;5.25;;
7515;SDS011;3799;47.184;8.538;2023-06-26T09:46:03;14.02;;;5.95;;
7515;SDS011;3799;47.184;8.538;2023-06-26T09:48:30;7.65;;;5.32;;
7515;SDS011;3799;47.184;8.538;2023-06-26T09:51:00;8.32;;;5.90;;
7515;SDS011;3799;47.184;8.538;2023-06-26T09:56:14;7.28;;;4.75;;
7515;SDS011;3799;47.184;8.538;2023-06-26T09:58:44;6.47;;;4.45;;
7515;SDS011;3799;47.184;8.538;2023-06-26T10:01:11;11.00;;;4.97;;
7515;SDS011;3799;47.184;8.538;2023-06-26T10:03:42;6.63;;;4.95;;
7515;SDS011;3799;47.184;8.538;2023-06-26T10:06:10;7.78;;;5.22;;
7515;SDS011;3799;47.184;8.538;2023-06-26T10:08:40;7.35;;;5.15;;
7515;SDS011;3799;47.184;8.538;2023-06-26T10:11:08;7.57;;;5.32;;
7515;SDS011;3799;47.184;8.538;2023-06-26T10:13:42;8.50;;;5.78;;
7515;SDS011;3799;47.184;8.538;2023-06-26T10:16:13;7.20;;;4.80;;
7515;SDS011;3799;47.184;8.538;2023-06-26T10:18:51;8.40;;;4.22;;
7515;SDS011;3799;47.184;8.538;2023-06-26T10:21:22;11.70;;;4.43;;
7515;SDS011;3799;47.184;8.538;2023-06-26T10:23:52;6.65;;;4.40;;
7515;SDS011;3799;47.184;8.538;2023-06-26T10:26:21;7.25;;;5.18;;
7515;SDS011;3799;47.184;8.538;2023-06-26T10:28:48;5.88;;;4.53;;
7515;SDS011;3799;47.184;8.538;2023-06-26T10:31:23;8.30;;;5.28;;
7515;SDS011;3799;47.184;8.538;2023-06-26T10:33:53;8.48;;;5.20;;
7515;SDS011;3799;47.184;8.538;2023-06-26T10:36:27;7.22;;;4.60;;
7515;SDS011;3799;47.184;8.538;2023-06-26T10:39:05;5.95;;;4.07;;
7515;SDS011;3799;47.184;8.538;2023-06-26T10:41:37;7.40;;;5.10;;
7515;SDS011;3799;47.184;8.538;2023-06-26T10:44:26;9.20;;;4.68;;
7515;SDS011;3799;47.184;8.538;2023-06-26T10:46:54;8.82;;;5.35;;
7515;SDS011;3799;47.184;8.538;2023-06-26T10:49:29;7.13;;;5.03;;
7515;SDS011;3799;47.184;8.538;2023-06-26T10:51:56;7.45;;;5.10;;
7515;SDS011;3799;47.184;8.538;2023-06-26T10:54:28;5.93;;;4.30;;
7515;SDS011;3799;47.184;8.538;2023-06-26T10:56:57;6.25;;;4.53;;
7515;SDS011;3799;47.184;8.538;2023-06-26T10:59:28;6.45;;;4.60;;
7515;SDS011;3799;47.184;8.538;2023-06-26T11:01:57;6.00;;;4.53;;
7515;SDS011;3799;47.184;8.538;2023-06-26T11:04:46;5.68;;;4.53;;
7515;SDS011;3799;47.184;8.538;2023-06-26T11:07:17;6.03;;;4.45;;
7515;SDS011;3799;47.184;8.538;2023-06-26T11:09:53;7.25;;;4.57;;
7515;SDS011;3799;47.184;8.538;2023-06-26T11:12:38;6.68;;;4.25;;
7515;SDS011;3799;47.184;8.538;2023-06-26T11:17:41;6.43;;;3.85;;
7515;SDS011;3799;47.184;8.538;2023-06-26T11:20:23;5.70;;;4.38;;
7515;SDS011;3799;47.184;8.538;2023-06-26T11:22:52;6.53;;;4.00;;
7515;SDS011;3799;47.184;8.538;2023-06-26T11:25:22;6.75;;;4.63;;
7515;SDS011;3799;47.184;8.538;2023-06-26T11:27:50;5.05;;;3.83;;
7515;SDS011;3799;47.184;8.538;2023-06-26T11:30:23;7.00;;;3.95;;
7515;SDS011;3799;47.184;8.538;2023-06-26T11:33:02;7.07;;;4.50;;
7515;SDS011;3799;47.184;8.538;2023-06-26T11:35:33;6.03;;;3.72;;
7515;SDS011;3799;47.184;8.538;2023-06-26T11:38:01;5.47;;;3.85;;
7515;SDS011;3799;47.184;8.538;2023-06-26T11:40:43;7.40;;;4.30;;
7515;SDS011;3799;47.184;8.538;2023-06-26T11:45:41;7.05;;;4.22;;
7515;SDS011;3799;47.184;8.538;2023-06-26T11:48:14;5.90;;;4.38;;
7515;SDS011;3799;47.184;8.538;2023-06-26T11:50:42;12.25;;;4.15;;
7515;SDS011;3799;47.184;8.538;2023-06-26T11:53:14;5.70;;;4.38;;
7515;SDS011;3799;47.184;8.538;2023-06-26T11:55:42;6.68;;;4.55;;
7515;SDS011;3799;47.184;8.538;2023-06-26T11:58:12;6.57;;;4.45;;
7515;SDS011;3799;47.184;8.538;2023-06-26T12:00:42;8.13;;;4.25;;
7515;SDS011;3799;47.184;8.538;2023-06-26T12:03:11;6.95;;;4.75;;
7515;SDS011;3799;47.184;8.538;2023-06-26T12:05:39;7.43;;;4.78;;
7515;SDS011;3799;47.184;8.538;2023-06-26T12:08:07;6.97;;;4.38;;
7515;SDS011;3799;47.184;8.538;2023-06-26T12:10:38;6.10;;;4.40;;
7515;SDS011;3799;47.184;8.538;2023-06-26T12:13:07;7.90;;;4.75;;
7515;SDS011;3799;47.184;8.538;2023-06-26T12:15:48;5.75;;;4.43;;
7515;SDS011;3799;47.184;8.538;2023-06-26T12:18:21;10.43;;;4.88;;
7515;SDS011;3799;47.184;8.538;2023-06-26T12:20:51;11.70;;;5.97;;
7515;SDS011;3799;47.184;8.538;2023-06-26T12:23:19;13.55;;;5.97;;
7515;SDS011;3799;47.184;8.538;2023-06-26T12:25:46;8.07;;;4.60;;
7515;SDS011;3799;47.184;8.538;2023-06-26T12:28:16;8.10;;;5.05;;
7515;SDS011;3799;47.184;8.538;2023-06-26T12:33:42;9.65;;;5.95;;
7515;SDS011;3799;47.184;8.538;2023-06-26T12:36:15;12.13;;;6.20;;
7515;SDS011;3799;47.184;8.538;2023-06-26T12:38:44;8.95;;;5.55;;
7515;SDS011;3799;47.184;8.538;2023-06-26T12:41:12;10.93;;;5.82;;
7515;SDS011;3799;47.184;8.538;2023-06-26T12:43:42;8.02;;;4.90;;
7515;SDS011;3799;47.184;8.538;2023-06-26T12:46:14;11.77;;;6.38;;
7515;SDS011;3799;47.184;8.538;2023-06-26T12:48:45;6.68;;;5.45;;
7515;SDS011;3799;47.184;8.538;2023-06-26T12:51:16;10.98;;;5.93;;
7515;SDS011;3799;47.184;8.538;2023-06-26T12:53:44;9.55;;;5.82;;
7515;SDS011;3799;47.184;8.538;2023-06-26T12:56:11;8.10;;;5.85;;
7515;SDS011;3799;47.184;8.538;2023-06-26T12:58:38;8.45;;;5.53;;
7515;SDS011;3799;47.184;8.538;2023-06-26T13:01:06;12.05;;;5.75;;
7515;SDS011;3799;47.184;8.538;2023-06-26T13:03:40;10.13;;;5.45;;
7515;SDS011;3799;47.184;8.538;2023-06-26T13:06:10;8.82;;;5.95;;
7515;SDS011;3799;47.184;8.538;2023-06-26T13:08:38;8.10;;;5.32;;
7515;SDS011;3799;47.184;8.538;2023-06-26T13:11:05;10.10;;;5.45;;
7515;SDS011;3799;47.184;8.538;2023-06-26T13:13:33;8.32;;;5.25;;
7515;SDS011;3799;47.184;8.538;2023-06-26T13:16:00;7.53;;;6.30;;
7515;SDS011;3799;47.184;8.538;2023-06-26T13:18:30;7.80;;;5.22;;
7515;SDS011;3799;47.184;8.538;2023-06-26T13:20:58;10.80;;;5.68;;
7515;SDS011;3799;47.184;8.538;2023-06-26T13:23:25;7.30;;;5.28;;
7515;SDS011;3799;47.184;8.538;2023-06-26T13:25:52;10.40;;;5.57;;
7515;SDS011;3799;47.184;8.538;2023-06-26T13:28:20;8.88;;;5.50;;
7515;SDS011;3799;47.184;8.538;2023-06-26T13:30:47;9.15;;;4.97;;
7515;SDS011;3799;47.184;8.538;2023-06-26T13:33:20;9.35;;;5.57;;
7515;SDS011;3799;47.184;8.538;2023-06-26T13:35:49;7.28;;;4.72;;
7515;SDS011;3799;47.184;8.538;2023-06-26T13:38:16;7.80;;;5.32;;
7515;SDS011;3799;47.184;8.538;2023-06-26T13:40:45;9.30;;;5.05;;
7515;SDS011;3799;47.184;8.538;2023-06-26T13:43:12;54.22;;;8.10;;
7515;SDS011;3799;47.184;8.538;2023-06-26T13:45:40;11.70;;;5.78;;
7515;SDS011;3799;47.184;8.538;2023-06-26T13:48:07;8.32;;;5.50;;
7515;SDS011;3799;47.184;8.538;2023-06-26T13:50:35;8.38;;;5.03;;
7515;SDS011;3799;47.184;8.538;2023-06-26T13:53:19;7.72;;;5.05;;
7515;SDS011;3799;47.184;8.538;2023-06-26T13:55:50;10.38;;;5.40;;
7515;SDS011;3799;47.184;8.538;2023-06-26T13:58:17;10.45;;;5.00;;
7515;SDS011;3799;47.184;8.538;2023-06-26T14:00:45;6.75;;;4.72;;
7515;SDS011;3799;47.184;8.538;2023-06-26T14:03:19;7.40;;;4.65;;
7515;SDS011;3799;47.184;8.538;2023-06-26T14:05:46;8.07;;;5.53;;
7515;SDS011;3799;47.184;8.538;2023-06-26T14:08:14;9.30;;;5.13;;
7515;SDS011;3799;47.184;8.538;2023-06-26T14:10:41;8.95;;;5.10;;
7515;SDS011;3799;47.184;8.538;2023-06-26T14:13:09;7.28;;;5.63;;
7515;SDS011;3799;47.184;8.538;2023-06-26T14:15:38;7.30;;;5.00;;
7515;SDS011;3799;47.184;8.538;2023-06-26T14:18:07;6.80;;;4.80;;
7515;SDS011;3799;47.184;8.538;2023-06-26T14:20:34;6.80;;;5.22;;
7515;SDS011;3799;47.184;8.538;2023-06-26T14:23:03;8.82;;;5.03;;
7515;SDS011;3799;47.184;8.538;2023-06-26T14:25:30;8.90;;;5.32;;
7515;SDS011;3799;47.184;8.538;2023-06-26T14:27:58;8.32;;;4.85;;
7515;SDS011;3799;47.184;8.538;2023-06-26T14:30:25;8.30;;;4.65;;
7515;SDS011;3799;47.184;8.538;2023-06-26T14:32:56;7.75;;;5.13;;
7515;SDS011;3799;47.184;8.538;2023-06-26T14:35:23;8.02;;;4.88;;
7515;SDS011;3799;47.184;8.538;2023-06-26T14:37:53;7.63;;;4.63;;
7515;SDS011;3799;47.184;8.538;2023-06-26T14:40:20;6.72;;;4.65;;
7515;SDS011;3799;47.184;8.538;2023-06-26T14:42:48;7.65;;;5.15;;
7515;SDS011;3799;47.184;8.538;2023-06-26T14:45:15;6.47;;;5.18;;
7515;SDS011;3799;47.184;8.538;2023-06-26T14:47:43;9.35;;;5.45;;
7515;SDS011;3799;47.184;8.538;2023-06-26T14:50:10;7.82;;;5.70;;
7515;SDS011;3799;47.184;8.538;2023-06-26T14:55:07;8.75;;;4.85;;
7515;SDS011;3799;47.184;8.538;2023-06-26T14:57:39;6.57;;;4.40;;
7515;SDS011;3799;47.184;8.538;2023-06-26T15:00:06;6.75;;;5.55;;
7515;SDS011;3799;47.184;8.538;2023-06-26T15:02:34;7.05;;;4.40;;
7515;SDS011;3799;47.184;8.538;2023-06-26T15:05:02;9.65;;;5.13;;
7515;SDS011;3799;47.184;8.538;2023-06-26T15:07:29;11.45;;;4.60;;
7515;SDS011;3799;47.184;8.538;2023-06-26T15:09:57;6.15;;;5.03;;
7515;SDS011;3799;47.184;8.538;2023-06-26T15:12:24;8.15;;;5.25;;
7515;SDS011;3799;47.184;8.538;2023-06-26T15:14:51;6.32;;;5.00;;
7515;SDS011;3799;47.184;8.538;2023-06-26T15:17:18;8.98;;;5.03;;
7515;SDS011;3799;47.184;8.538;2023-06-26T15:19:46;9.25;;;4.57;;
7515;SDS011;3799;47.184;8.538;2023-06-26T15:22:13;7.10;;;4.43;;
7515;SDS011;3799;47.184;8.538;2023-06-26T15:24:41;7.63;;;5.25;;
7515;SDS011;3799;47.184;8.538;2023-06-26T15:27:08;6.05;;;4.40;;
7515;SDS011;3799;47.184;8.538;2023-06-26T15:29:39;10.95;;;5.18;;
7515;SDS011;3799;47.184;8.538;2023-06-26T15:32:12;7.00;;;4.50;;
7515;SDS011;3799;47.184;8.538;2023-06-26T15:34:39;9.40;;;5.60;;
7515;SDS011;3799;47.184;8.538;2023-06-26T15:37:06;8.40;;;5.15;;
7515;SDS011;3799;47.184;8.538;2023-06-26T15:39:33;8.70;;;5.20;;
7515;SDS011;3799;47.184;8.538;2023-06-26T15:42:00;9.75;;;4.90;;
7515;SDS011;3799;47.184;8.538;2023-06-26T15:44:30;6.13;;;4.30;;
7515;SDS011;3799;47.184;8.538;2023-06-26T15:46:59;7.55;;;5.05;;